Time;durP1;ratioP1;P1;durP2;ratioP2;P2;SDS_P1;SDS_P2;PMS_P1;PMS_P2;Temp;Humidity;BMP_temperature;BMP_pressure;BME280_temperature;BME280_humidity;BME280_pressure;Samples;Min_cycle;Max_cycle;Signal;HPM_P1;HPM_P2
2023/10/21 00:00:30;;;;;;;19.83;6.63;;;;;;;;;;770354;183;909089;-64
2023/10/21 00:02:56;;;;;;;21.83;6.90;;;;;;;;;;763554;182;918788;-64
2023/10/21 00:05:22;;;;;;;21.20;6.73;;;;;;;;;;764849;182;912298;-68
2023/10/21 00:07:48;;;;;;;22.60;5.95;;;;;;;;;;767652;182;916676;-69
2023/10/21 00:10:14;;;;;;;21.53;5.87;;;;;;;;;;756225;186;915707;-68
2023/10/21 00:12:40;;;;;;;21.57;5.20;;;;;;;;;;748366;183;919422;-65
2023/10/21 00:15:06;;;;;;;19.97;5.50;;;;;;;;;;762162;183;922202;-66
2023/10/21 00:17:32;;;;;;;14.23;5.30;;;;;;;;;;750872;185;915201;-66
2023/10/21 00:19:59;;;;;;;15.52;4.07;;;;;;;;;;767621;181;920071;-70
2023/10/21 00:22:24;;;;;;;13.35;4.50;;;;;;;;;;754992;182;1727794;-66
2023/10/21 00:24:49;;;;;;;10.77;4.27;;;;;;;;;;760568;184;876113;-69
2023/10/21 00:27:15;;;;;;;15.80;5.17;;;;;;;;;;746974;186;937175;-69
2023/10/21 00:29:41;;;;;;;18.90;5.37;;;;;;;;;;741528;186;918776;-65
2023/10/21 00:32:07;;;;;;;13.53;5.17;;;;;;;;;;768575;180;919255;-63
2023/10/21 00:34:38;;;;;;;20.27;5.50;;;;;;;;;;749908;184;914233;-69
2023/10/21 00:36:59;;;;;;;23.13;5.33;;;;;;;;;;755366;183;919138;-65
2023/10/21 00:39:24;;;;;;;15.60;5.47;;;;;;;;;;770809;179;914173;-65
2023/10/21 00:41:50;;;;;;;15.67;6.00;;;;;;;;;;768284;182;917056;-66
2023/10/21 00:44:16;;;;;;;18.50;6.00;;;;;;;;;;755266;184;918859;-66
2023/10/21 00:46:42;;;;;;;21.60;6.47;;;;;;;;;;774759;179;793394;-69
2023/10/21 00:49:08;;;;;;;22.33;5.40;;;;;;;;;;777696;180;922044;-69
2023/10/21 00:51:35;;;;;;;24.97;5.97;;;;;;;;;;767785;180;918840;-70
2023/10/21 00:54:00;;;;;;;20.60;6.80;;;;;;;;;;772239;179;813781;-65
2023/10/21 00:56:25;;;;;;;19.57;4.53;;;;;;;;;;769951;180;919196;-67
2023/10/21 00:58:51;;;;;;;16.80;6.47;;;;;;;;;;766899;180;918872;-68
2023/10/21 01:01:17;;;;;;;22.67;6.77;;;;;;;;;;768265;181;918621;-70
2023/10/21 01:03:43;;;;;;;16.30;6.07;;;;;;;;;;774559;180;916997;-70
2023/10/21 01:06:09;;;;;;;19.10;5.10;;;;;;;;;;761502;182;1431265;-69
2023/10/21 01:08:41;;;;;;;24.90;7.30;;;;;;;;;;765663;181;918998;-69
2023/10/21 01:11:05;;;;;;;18.63;5.70;;;;;;;;;;767719;180;919057;-67
2023/10/21 01:13:31;;;;;;;27.17;6.43;;;;;;;;;;764590;184;912348;-65
2023/10/21 01:15:57;;;;;;;25.00;5.97;;;;;;;;;;759918;182;918101;-69
2023/10/21 01:18:25;;;;;;;24.75;6.32;;;;;;;;;;769295;182;918902;-66
2023/10/21 01:20:49;;;;;;;18.20;5.97;;;;;;;;;;770746;182;918886;-66
2023/10/21 01:23:15;;;;;;;12.33;5.03;;;;;;;;;;769466;182;897838;-69
2023/10/21 01:25:40;;;;;;;24.93;7.63;;;;;;;;;;764763;182;919705;-64
2023/10/21 01:28:06;;;;;;;20.30;6.10;;;;;;;;;;759876;182;918494;-68
2023/10/21 01:30:32;;;;;;;21.83;5.40;;;;;;;;;;765609;183;922243;-65
2023/10/21 01:32:58;;;;;;;26.53;8.00;;;;;;;;;;763317;183;923641;-68
2023/10/21 01:35:24;;;;;;;15.10;4.97;;;;;;;;;;763711;182;915972;-68
2023/10/21 01:37:50;;;;;;;16.40;4.40;;;;;;;;;;765283;182;917444;-69
2023/10/21 01:40:16;;;;;;;23.37;6.03;;;;;;;;;;755142;183;921159;-68
2023/10/21 01:42:41;;;;;;;16.03;5.80;;;;;;;;;;762941;182;917208;-69
2023/10/21 01:45:07;;;;;;;18.33;6.43;;;;;;;;;;770359;182;919140;-65
2023/10/21 01:47:33;;;;;;;22.97;5.97;;;;;;;;;;765287;182;919949;-66
2023/10/21 01:49:59;;;;;;;23.80;6.97;;;;;;;;;;762696;179;919269;-69
2023/10/21 01:52:25;;;;;;;17.50;6.40;;;;;;;;;;770871;182;918588;-70
2023/10/21 01:54:51;;;;;;;20.00;5.87;;;;;;;;;;758650;183;920925;-69
2023/10/21 01:57:16;;;;;;;18.40;7.10;;;;;;;;;;760502;181;919206;-66
2023/10/21 01:59:43;;;;;;;17.37;6.63;;;;;;;;;;766540;181;925443;-65
2023/10/21 02:02:09;;;;;;;17.93;5.80;;;;;;;;;;771706;181;919321;-66
2023/10/21 02:04:34;;;;;;;25.33;7.93;;;;;;;;;;760740;183;919750;-67
2023/10/21 02:07:00;;;;;;;17.50;6.00;;;;;;;;;;766419;182;918946;-69
2023/10/21 02:09:26;;;;;;;22.27;7.70;;;;;;;;;;774702;179;919421;-68
2023/10/21 02:11:55;;;;;;;25.17;7.60;;;;;;;;;;768302;180;919738;-65
2023/10/21 02:14:22;;;;;;;15.00;6.43;;;;;;;;;;756811;183;932360;-66
2023/10/21 02:16:45;;;;;;;21.80;6.73;;;;;;;;;;755656;185;916325;-67
2023/10/21 02:19:11;;;;;;;19.37;6.53;;;;;;;;;;758603;182;919203;-66
2023/10/21 02:21:37;;;;;;;25.93;7.83;;;;;;;;;;771697;179;918962;-67
2023/10/21 02:24:03;;;;;;;27.50;9.33;;;;;;;;;;756441;184;919806;-67
2023/10/21 02:26:29;;;;;;;22.37;6.93;;;;;;;;;;759120;182;886407;-65
2023/10/21 02:28:54;;;;;;;23.40;6.57;;;;;;;;;;771235;180;817172;-68
2023/10/21 02:31:20;;;;;;;18.63;7.20;;;;;;;;;;746837;186;828878;-67
2023/10/21 02:33:46;;;;;;;15.53;6.07;;;;;;;;;;766277;182;819673;-65
2023/10/21 02:36:12;;;;;;;24.80;8.57;;;;;;;;;;764315;182;918794;-67
2023/10/21 02:38:38;;;;;;;22.73;6.00;;;;;;;;;;766523;182;918738;-68
2023/10/21 02:41:05;;;;;;;25.07;6.53;;;;;;;;;;770543;182;844513;-68
2023/10/21 02:43:30;;;;;;;26.00;7.20;;;;;;;;;;769921;181;915407;-66
2023/10/21 02:45:55;;;;;;;18.20;7.43;;;;;;;;;;749249;183;919545;-68
2023/10/21 02:48:21;;;;;;;25.03;7.10;;;;;;;;;;764137;182;918562;-67
2023/10/21 02:50:48;;;;;;;20.33;5.80;;;;;;;;;;767663;183;917768;-68
2023/10/21 02:53:13;;;;;;;19.33;6.60;;;;;;;;;;767309;180;918795;-69
2023/10/21 02:55:39;;;;;;;26.97;6.80;;;;;;;;;;770654;180;919931;-67
2023/10/21 02:58:05;;;;;;;22.92;7.40;;;;;;;;;;777814;179;812061;-66
2023/10/21 03:00:31;;;;;;;20.43;6.73;;;;;;;;;;769182;180;821775;-65
2023/10/21 03:02:57;;;;;;;19.83;6.40;;;;;;;;;;754802;184;915791;-66
2023/10/21 03:05:23;;;;;;;19.83;6.30;;;;;;;;;;760454;185;915441;-67
2023/10/21 03:07:48;;;;;;;21.53;6.73;;;;;;;;;;759114;182;914657;-67
2023/10/21 03:10:15;;;;;;;14.63;5.93;;;;;;;;;;757882;182;919387;-66
2023/10/21 03:12:40;;;;;;;18.77;6.47;;;;;;;;;;772638;179;917414;-67
2023/10/21 03:15:07;;;;;;;27.77;6.63;;;;;;;;;;766245;180;915309;-66
2023/10/21 03:17:32;;;;;;;22.60;5.80;;;;;;;;;;765652;180;915911;-66
2023/10/21 03:19:59;;;;;;;33.60;10.20;;;;;;;;;;770641;179;917824;-66
2023/10/21 03:22:25;;;;;;;26.63;7.80;;;;;;;;;;772796;181;921819;-65
2023/10/21 03:24:50;;;;;;;22.83;7.43;;;;;;;;;;764602;183;918709;-68
2023/10/21 03:27:16;;;;;;;22.53;7.13;;;;;;;;;;769465;182;919237;-67
2023/10/21 03:29:42;;;;;;;22.47;6.70;;;;;;;;;;770564;179;829314;-67
2023/10/21 03:32:09;;;;;;;21.40;6.40;;;;;;;;;;765458;182;918022;-65
2023/10/21 03:34:33;;;;;;;23.80;6.10;;;;;;;;;;744328;187;861391;-66
2023/10/21 03:36:59;;;;;;;18.03;6.50;;;;;;;;;;769568;181;917694;-66
2023/10/21 03:39:26;;;;;;;20.43;8.10;;;;;;;;;;771123;180;919447;-65
2023/10/21 03:41:51;;;;;;;23.63;6.43;;;;;;;;;;764037;181;918908;-65
2023/10/21 03:44:17;;;;;;;13.97;7.20;;;;;;;;;;761669;184;910380;-67
2023/10/21 03:46:42;;;;;;;28.17;6.87;;;;;;;;;;768295;182;919617;-67
2023/10/21 03:49:08;;;;;;;20.83;5.37;;;;;;;;;;768858;180;920397;-65
2023/10/21 03:51:34;;;;;;;23.13;6.20;;;;;;;;;;768248;180;815512;-66
2023/10/21 03:54:01;;;;;;;17.50;6.37;;;;;;;;;;775087;180;817298;-65
2023/10/21 03:56:26;;;;;;;17.47;6.80;;;;;;;;;;773953;180;917862;-67
2023/10/21 03:58:52;;;;;;;17.00;6.77;;;;;;;;;;754753;183;915504;-66
2023/10/21 04:01:20;;;;;;;23.20;7.33;;;;;;;;;;765736;182;916129;-66
2023/10/21 04:03:44;;;;;;;26.03;7.30;;;;;;;;;;765763;182;901493;-66
2023/10/21 04:06:11;;;;;;;18.52;6.30;;;;;;;;;;773655;180;914940;-67
2023/10/21 04:08:35;;;;;;;16.27;6.60;;;;;;;;;;768956;180;918590;-68
2023/10/21 04:11:01;;;;;;;18.97;5.43;;;;;;;;;;769724;179;920881;-65
2023/10/21 04:13:27;;;;;;;28.13;7.60;;;;;;;;;;769269;180;918374;-68
2023/10/21 04:15:53;;;;;;;21.10;6.70;;;;;;;;;;769098;180;910198;-67
2023/10/21 04:18:18;;;;;;;22.70;6.30;;;;;;;;;;773884;180;920319;-67
2023/10/21 04:20:44;;;;;;;19.27;5.47;;;;;;;;;;766319;180;921481;-65
2023/10/21 04:23:10;;;;;;;19.90;9.88;;;;;;;;;;750842;184;921757;-65
2023/10/21 04:25:36;;;;;;;19.03;5.00;;;;;;;;;;767351;182;918552;-66
2023/10/21 04:28:02;;;;;;;24.67;7.63;;;;;;;;;;766345;182;920840;-65
2023/10/21 04:30:28;;;;;;;27.33;6.30;;;;;;;;;;766878;182;918746;-67
2023/10/21 04:32:54;;;;;;;20.70;6.50;;;;;;;;;;769149;182;916311;-66
2023/10/21 04:35:19;;;;;;;26.00;6.73;;;;;;;;;;760364;183;915213;-66
2023/10/21 04:37:45;;;;;;;24.77;6.70;;;;;;;;;;760310;183;1021214;-66
2023/10/21 04:40:12;;;;;;;18.12;5.87;;;;;;;;;;757276;186;918009;-66
2023/10/21 04:42:38;;;;;;;17.87;6.73;;;;;;;;;;751308;185;865060;-67
2023/10/21 04:45:05;;;;;;;17.90;6.90;;;;;;;;;;758666;182;918730;-67
2023/10/21 04:47:30;;;;;;;26.47;8.50;;;;;;;;;;749805;185;920623;-67
2023/10/21 04:49:56;;;;;;;17.53;5.47;;;;;;;;;;757264;185;812676;-67
2023/10/21 04:52:22;;;;;;;20.47;7.00;;;;;;;;;;745077;184;919439;-67
2023/10/21 04:54:47;;;;;;;26.98;5.72;;;;;;;;;;756865;183;919277;-68
2023/10/21 04:57:13;;;;;;;16.33;5.80;;;;;;;;;;771558;179;917042;-68
2023/10/21 04:59:39;;;;;;;22.57;7.80;;;;;;;;;;765784;181;919359;-67
2023/10/21 05:02:05;;;;;;;23.40;6.20;;;;;;;;;;769445;181;923474;-67
2023/10/21 05:04:32;;;;;;;16.05;5.22;;;;;;;;;;765137;180;918640;-65
2023/10/21 05:06:57;;;;;;;12.17;4.87;;;;;;;;;;760561;182;918831;-65
2023/10/21 05:09:23;;;;;;;18.97;6.60;;;;;;;;;;759936;183;922370;-66
2023/10/21 05:11:49;;;;;;;28.57;6.60;;;;;;;;;;758878;182;929713;-66
2023/10/21 05:14:15;;;;;;;17.23;5.20;;;;;;;;;;767050;183;919215;-67
2023/10/21 05:16:41;;;;;;;20.43;6.00;;;;;;;;;;745550;184;633744;-66
2023/10/21 05:19:07;;;;;;;21.03;5.80;;;;;;;;;;769523;181;632983;-67
2023/10/21 05:21:33;;;;;;;14.20;5.00;;;;;;;;;;765354;182;631039;-66
2023/10/21 05:23:58;;;;;;;14.97;5.60;;;;;;;;;;767151;182;910240;-66
2023/10/21 05:26:25;;;;;;;17.50;5.57;;;;;;;;;;750441;184;919764;-67
2023/10/21 05:28:50;;;;;;;21.30;6.30;;;;;;;;;;770924;179;810332;-67
2023/10/21 05:31:16;;;;;;;21.13;5.43;;;;;;;;;;751246;185;932333;-66
2023/10/21 05:33:42;;;;;;;19.40;5.10;;;;;;;;;;755724;182;920412;-68
2023/10/21 05:36:08;;;;;;;18.58;5.50;;;;;;;;;;770342;180;919732;-67
2023/10/21 05:38:33;;;;;;;11.53;4.93;;;;;;;;;;767456;182;921038;-67
2023/10/21 05:40:59;;;;;;;17.23;4.97;;;;;;;;;;768104;180;918020;-67
2023/10/21 05:43:25;;;;;;;12.13;5.15;;;;;;;;;;748293;186;920771;-66
2023/10/21 05:45:51;;;;;;;14.17;4.93;;;;;;;;;;768866;182;816973;-67
2023/10/21 05:48:17;;;;;;;13.90;4.07;;;;;;;;;;762574;180;919080;-67
2023/10/21 05:50:43;;;;;;;24.47;5.70;;;;;;;;;;762316;180;925008;-65
2023/10/21 05:53:08;;;;;;;21.90;4.77;;;;;;;;;;756356;185;917470;-68
2023/10/21 05:55:34;;;;;;;25.33;5.93;;;;;;;;;;763994;182;820488;-67
2023/10/21 05:58:00;;;;;;;17.33;5.17;;;;;;;;;;766912;182;851318;-65
2023/10/21 06:00:26;;;;;;;19.93;5.00;;;;;;;;;;774800;179;919076;-65
2023/10/21 06:02:52;;;;;;;16.60;5.13;;;;;;;;;;772124;180;919669;-67
2023/10/21 06:05:18;;;;;;;16.43;4.97;;;;;;;;;;770367;179;920514;-67
2023/10/21 06:07:44;;;;;;;11.53;4.73;;;;;;;;;;767719;180;921698;-67
2023/10/21 06:10:09;;;;;;;20.73;6.40;;;;;;;;;;753980;186;917463;-68
2023/10/21 06:12:35;;;;;;;16.07;5.40;;;;;;;;;;769310;182;933323;-67
2023/10/21 06:15:01;;;;;;;15.97;4.40;;;;;;;;;;771924;179;869693;-68
2023/10/21 06:17:27;;;;;;;10.23;3.80;;;;;;;;;;774616;179;913402;-68
2023/10/21 06:19:53;;;;;;;15.37;5.40;;;;;;;;;;772520;179;809900;-68
2023/10/21 06:22:19;;;;;;;14.43;5.50;;;;;;;;;;769050;180;937090;-67
2023/10/21 06:24:45;;;;;;;18.57;6.20;;;;;;;;;;774359;180;869711;-67
2023/10/21 06:27:11;;;;;;;13.67;4.50;;;;;;;;;;752284;182;935858;-67
2023/10/21 06:29:36;;;;;;;17.33;6.37;;;;;;;;;;767347;179;917514;-66
2023/10/21 06:32:06;;;;;;;11.80;4.60;;;;;;;;;;756323;183;917179;-67
2023/10/21 06:34:30;;;;;;;18.90;5.20;;;;;;;;;;761052;182;819756;-67
2023/10/21 06:36:56;;;;;;;19.03;5.07;;;;;;;;;;753839;184;917617;-66
2023/10/21 06:39:22;;;;;;;12.30;5.27;;;;;;;;;;768823;183;634853;-65
2023/10/21 06:41:47;;;;;;;18.30;5.40;;;;;;;;;;773986;179;935245;-65
2023/10/21 06:44:16;;;;;;;17.27;4.87;;;;;;;;;;771122;180;810651;-64
2023/10/21 06:46:40;;;;;;;15.00;4.90;;;;;;;;;;772260;182;623891;-68
2023/10/21 06:49:05;;;;;;;16.40;5.20;;;;;;;;;;773545;180;916123;-66
2023/10/21 06:51:31;;;;;;;16.73;6.70;;;;;;;;;;767101;180;916971;-67
2023/10/21 06:53:57;;;;;;;15.40;4.80;;;;;;;;;;770165;182;813749;-66
2023/10/21 06:56:23;;;;;;;11.10;5.13;;;;;;;;;;766218;181;919390;-68
2023/10/21 06:58:48;;;;;;;15.73;5.63;;;;;;;;;;768491;179;917477;-65
2023/10/21 07:01:14;;;;;;;15.00;4.40;;;;;;;;;;762786;182;874296;-66
2023/10/21 07:03:40;;;;;;;13.40;5.40;;;;;;;;;;755041;183;917997;-66
2023/10/21 07:06:06;;;;;;;13.67;5.13;;;;;;;;;;766055;183;918674;-68
2023/10/21 07:08:32;;;;;;;8.40;4.07;;;;;;;;;;765005;182;919823;-68
2023/10/21 07:10:58;;;;;;;15.60;4.87;;;;;;;;;;765946;181;929043;-69
2023/10/21 07:13:24;;;;;;;17.03;4.70;;;;;;;;;;771950;180;918520;-68
2023/10/21 07:15:51;;;;;;;12.37;4.80;;;;;;;;;;769642;180;815925;-66
2023/10/21 07:18:15;;;;;;;13.80;4.43;;;;;;;;;;768049;182;919220;-66
2023/10/21 07:20:41;;;;;;;20.23;5.80;;;;;;;;;;772281;182;917967;-68
2023/10/21 07:23:08;;;;;;;18.40;4.60;;;;;;;;;;766261;182;914248;-68
2023/10/21 07:25:33;;;;;;;16.73;5.17;;;;;;;;;;766140;180;922667;-68
2023/10/21 07:27:59;;;;;;;13.57;5.00;;;;;;;;;;767275;183;960618;-68
2023/10/21 07:30:27;;;;;;;13.40;5.30;;;;;;;;;;771911;182;914102;-66
2023/10/21 07:32:51;;;;;;;22.03;5.43;;;;;;;;;;764369;182;915866;-65
2023/10/21 07:35:17;;;;;;;11.27;4.53;;;;;;;;;;767599;180;914238;-66
2023/10/21 07:37:44;;;;;;;15.53;5.20;;;;;;;;;;771438;180;923735;-65
2023/10/21 07:40:10;;;;;;;14.50;4.30;;;;;;;;;;768531;180;920603;-67
2023/10/21 07:42:35;;;;;;;10.70;4.60;;;;;;;;;;770612;180;813801;-66
2023/10/21 07:45:04;;;;;;;11.20;3.90;;;;;;;;;;769727;180;1314212;-65
2023/10/21 07:47:27;;;;;;;13.73;4.83;;;;;;;;;;766712;180;930930;-65
2023/10/21 07:49:54;;;;;;;14.40;4.77;;;;;;;;;;769050;182;919970;-67
2023/10/21 07:52:19;;;;;;;9.70;4.20;;;;;;;;;;770371;181;911059;-69
2023/10/21 07:54:45;;;;;;;13.23;4.23;;;;;;;;;;773413;181;920833;-65
2023/10/21 07:57:11;;;;;;;15.40;6.10;;;;;;;;;;764683;182;919716;-65
2023/10/21 07:59:37;;;;;;;13.97;4.70;;;;;;;;;;768792;180;919490;-66
2023/10/21 08:02:02;;;;;;;13.30;3.80;;;;;;;;;;773613;182;885137;-65
2023/10/21 08:04:28;;;;;;;12.50;4.80;;;;;;;;;;769689;182;918802;-67
2023/10/21 08:06:55;;;;;;;11.33;5.13;;;;;;;;;;761204;181;826177;-68
2023/10/21 08:09:20;;;;;;;13.77;4.17;;;;;;;;;;772293;180;918575;-66
2023/10/21 08:11:46;;;;;;;9.77;3.80;;;;;;;;;;766536;180;918084;-66
2023/10/21 08:14:12;;;;;;;13.52;4.55;;;;;;;;;;767275;180;919576;-67
2023/10/21 08:16:37;;;;;;;9.10;4.40;;;;;;;;;;773387;180;918344;-68
2023/10/21 08:19:04;;;;;;;15.03;5.30;;;;;;;;;;767090;181;919601;-65
2023/10/21 08:21:29;;;;;;;11.90;4.90;;;;;;;;;;759051;183;919417;-65
2023/10/21 08:23:56;;;;;;;11.93;4.70;;;;;;;;;;760400;183;817014;-68
2023/10/21 08:26:21;;;;;;;14.73;3.80;;;;;;;;;;760626;183;896019;-68
2023/10/21 08:28:47;;;;;;;18.37;4.50;;;;;;;;;;764530;180;921658;-68
2023/10/21 08:31:13;;;;;;;8.48;3.85;;;;;;;;;;765986;182;919504;-66
2023/10/21 08:33:38;;;;;;;14.80;4.87;;;;;;;;;;772278;181;613719;-66
2023/10/21 08:36:04;;;;;;;10.70;4.40;;;;;;;;;;769949;181;814069;-68
2023/10/21 08:38:30;;;;;;;12.40;4.20;;;;;;;;;;766764;181;925395;-69
2023/10/21 08:40:56;;;;;;;9.50;3.60;;;;;;;;;;772589;179;918947;-66
2023/10/21 08:43:22;;;;;;;10.70;3.90;;;;;;;;;;768000;181;916626;-68
2023/10/21 08:45:48;;;;;;;17.23;3.93;;;;;;;;;;768494;182;920200;-66
2023/10/21 08:48:14;;;;;;;11.33;4.10;;;;;;;;;;766491;182;920523;-66
2023/10/21 08:50:40;;;;;;;11.97;3.70;;;;;;;;;;773674;181;919722;-65
2023/10/21 08:53:05;;;;;;;12.13;4.23;;;;;;;;;;758511;182;919338;-67
2023/10/21 08:55:31;;;;;;;10.93;3.80;;;;;;;;;;738624;189;816950;-66
2023/10/21 08:57:57;;;;;;;12.20;3.90;;;;;;;;;;764570;183;919068;-64
2023/10/21 09:00:23;;;;;;;13.77;5.10;;;;;;;;;;768589;180;919008;-68
2023/10/21 09:02:49;;;;;;;15.27;4.00;;;;;;;;;;759595;183;918592;-66
2023/10/21 09:05:15;;;;;;;9.73;3.47;;;;;;;;;;763231;183;911649;-68
2023/10/21 09:07:45;;;;;;;11.97;3.63;;;;;;;;;;761578;183;921886;-69
2023/10/21 09:10:11;;;;;;;14.97;4.20;;;;;;;;;;742142;185;917779;-67
2023/10/21 09:12:37;;;;;;;14.17;3.40;;;;;;;;;;766662;181;918963;-68
2023/10/21 09:15:05;;;;;;;12.90;3.10;;;;;;;;;;771472;181;920500;-68
2023/10/21 09:17:34;;;;;;;16.43;4.00;;;;;;;;;;766366;181;859241;-67
2023/10/21 09:19:59;;;;;;;11.93;3.70;;;;;;;;;;762627;180;920942;-65
2023/10/21 09:22:25;;;;;;;14.70;4.33;;;;;;;;;;769571;183;918976;-66
2023/10/21 09:24:50;;;;;;;14.97;3.77;;;;;;;;;;770644;182;915581;-65
2023/10/21 09:27:16;;;;;;;8.40;3.67;;;;;;;;;;764149;182;924872;-66
2023/10/21 09:29:43;;;;;;;12.13;3.67;;;;;;;;;;770149;182;918314;-68
2023/10/21 09:32:08;;;;;;;7.30;4.00;;;;;;;;;;745199;186;917038;-66
2023/10/21 09:34:34;;;;;;;14.20;4.17;;;;;;;;;;763248;182;818341;-67
2023/10/21 09:37:00;;;;;;;9.30;4.13;;;;;;;;;;751800;186;928082;-68
2023/10/21 09:39:26;;;;;;;9.40;4.87;;;;;;;;;;752293;186;918415;-65
2023/10/21 09:41:52;;;;;;;8.47;3.13;;;;;;;;;;753160;184;919296;-65
2023/10/21 09:44:17;;;;;;;11.30;3.27;;;;;;;;;;749035;182;918509;-68
2023/10/21 09:46:44;;;;;;;7.47;3.67;;;;;;;;;;765411;180;913635;-68
2023/10/21 09:49:10;;;;;;;9.17;3.07;;;;;;;;;;753441;183;919746;-67
2023/10/21 09:51:36;;;;;;;12.93;4.00;;;;;;;;;;759578;181;918778;-64
2023/10/21 09:54:02;;;;;;;9.27;4.30;;;;;;;;;;775603;178;915977;-67
2023/10/21 09:56:28;;;;;;;9.17;3.00;;;;;;;;;;772239;178;918454;-68
2023/10/21 09:58:53;;;;;;;9.00;3.50;;;;;;;;;;756286;185;906709;-68
2023/10/21 10:01:23;;;;;;;9.20;2.93;;;;;;;;;;753448;184;918917;-65
2023/10/21 10:03:45;;;;;;;8.07;3.10;;;;;;;;;;759030;181;908948;-64
2023/10/21 10:06:11;;;;;;;8.40;3.30;;;;;;;;;;765007;182;920266;-64
2023/10/21 10:08:37;;;;;;;9.50;3.30;;;;;;;;;;763771;182;921625;-65
2023/10/21 10:11:03;;;;;;;7.30;3.77;;;;;;;;;;764574;182;861720;-66
2023/10/21 10:13:29;;;;;;;10.10;3.80;;;;;;;;;;764558;180;833778;-64
2023/10/21 10:15:55;;;;;;;8.53;2.80;;;;;;;;;;768145;182;816751;-64
2023/10/21 10:18:21;;;;;;;9.10;3.73;;;;;;;;;;773420;181;820170;-68
2023/10/21 10:20:48;;;;;;;4.87;3.23;;;;;;;;;;769761;180;916069;-69
2023/10/21 10:23:12;;;;;;;9.37;3.43;;;;;;;;;;766633;182;911776;-66
2023/10/21 10:25:39;;;;;;;7.87;3.20;;;;;;;;;;766999;180;922734;-68
2023/10/21 10:28:07;;;;;;;10.60;3.70;;;;;;;;;;772565;180;918960;-69
2023/10/21 10:30:31;;;;;;;6.60;2.93;;;;;;;;;;758627;183;920613;-69
2023/10/21 10:32:58;;;;;;;8.93;3.40;;;;;;;;;;764585;183;919348;-69
2023/10/21 10:35:31;;;;;;;10.00;4.60;;;;;;;;;;771612;180;918196;-67
2023/10/21 10:37:57;;;;;;;8.60;3.77;;;;;;;;;;766473;180;935046;-68
2023/10/21 10:40:28;;;;;;;7.50;3.37;;;;;;;;;;765117;180;923607;-68
2023/10/21 10:42:56;;;;;;;8.30;3.10;;;;;;;;;;765342;180;977079;-69
2023/10/21 10:45:20;;;;;;;9.30;3.53;;;;;;;;;;771960;180;918666;-65
2023/10/21 10:47:46;;;;;;;13.97;4.47;;;;;;;;;;768785;180;815198;-68
2023/10/21 10:50:16;;;;;;;4.28;2.83;;;;;;;;;;763393;183;919467;-69
2023/10/21 10:52:38;;;;;;;9.00;3.70;;;;;;;;;;771622;183;915133;-65
2023/10/21 10:55:08;;;;;;;5.23;3.37;;;;;;;;;;765397;183;919334;-65
2023/10/21 10:57:30;;;;;;;13.30;3.80;;;;;;;;;;768001;180;814486;-67
2023/10/21 10:59:56;;;;;;;8.37;3.43;;;;;;;;;;767264;183;903390;-66
2023/10/21 11:02:24;;;;;;;7.90;3.50;;;;;;;;;;772794;183;818445;-66
2023/10/21 11:04:49;;;;;;;11.90;4.57;;;;;;;;;;767676;181;919339;-69
2023/10/21 11:07:14;;;;;;;10.00;3.93;;;;;;;;;;768882;180;888348;-66
2023/10/21 11:09:40;;;;;;;8.60;3.83;;;;;;;;;;775127;180;922968;-66
2023/10/21 11:12:06;;;;;;;7.80;3.30;;;;;;;;;;765463;180;917320;-69
2023/10/21 11:14:31;;;;;;;8.82;3.22;;;;;;;;;;767826;182;815769;-68
2023/10/21 11:16:58;;;;;;;11.93;3.23;;;;;;;;;;766589;181;922465;-69
2023/10/21 11:19:23;;;;;;;10.00;3.90;;;;;;;;;;767216;182;916325;-69
2023/10/21 11:21:49;;;;;;;7.47;3.25;;;;;;;;;;767693;181;917647;-66
2023/10/21 11:24:15;;;;;;;7.53;3.60;;;;;;;;;;768168;180;918495;-65
2023/10/21 11:26:41;;;;;;;10.23;3.50;;;;;;;;;;776019;182;917536;-65
2023/10/21 11:29:06;;;;;;;10.87;3.93;;;;;;;;;;767375;182;915939;-68
2023/10/21 11:31:33;;;;;;;7.77;3.40;;;;;;;;;;766290;180;919739;-68
2023/10/21 11:34:04;;;;;;;9.07;3.00;;;;;;;;;;774574;180;819904;-69
2023/10/21 11:36:30;;;;;;;7.37;2.90;;;;;;;;;;765224;182;929907;-67
2023/10/21 11:38:56;;;;;;;6.93;2.90;;;;;;;;;;766141;182;918846;-65
2023/10/21 11:41:22;;;;;;;8.85;3.03;;;;;;;;;;765759;182;914852;-66
2023/10/21 11:43:51;;;;;;;7.03;2.73;;;;;;;;;;761436;182;915915;-66
2023/10/21 11:46:14;;;;;;;9.10;3.53;;;;;;;;;;749627;184;913339;-70
2023/10/21 11:48:40;;;;;;;7.78;3.75;;;;;;;;;;764562;180;927552;-68
2023/10/21 11:51:07;;;;;;;16.57;3.60;;;;;;;;;;765894;182;904967;-69
2023/10/21 11:53:32;;;;;;;9.30;3.30;;;;;;;;;;763297;181;820408;-69
2023/10/21 11:56:51;;;;;;;7.97;3.20;;;;;;;;;;756649;182;916235;-70
2023/10/21 12:07:07;;;;;;;8.40;3.47;;;;;;;;;;767749;180;915018;-69
2023/10/21 12:11:48;;;;;;;9.80;3.70;;;;;;;;;;755574;185;918120;-69
2023/10/21 12:13:57;;;;;;;10.37;3.50;;;;;;;;;;766164;182;950643;-66
2023/10/21 12:16:30;;;;;;;7.07;3.37;;;;;;;;;;767245;181;918871;-67
2023/10/21 12:19:16;;;;;;;8.00;3.73;;;;;;;;;;758953;182;909112;-69
2023/10/21 12:24:08;;;;;;;10.93;3.80;;;;;;;;;;774209;180;918834;-69
2023/10/21 12:26:20;;;;;;;7.07;3.58;;;;;;;;;;771361;181;919364;-66
2023/10/21 12:31:41;;;;;;;12.57;3.23;;;;;;;;;;747198;183;819200;-66
2023/10/21 12:34:28;;;;;;;11.43;2.63;;;;;;;;;;761492;180;922191;-67
2023/10/21 12:36:32;;;;;;;6.73;2.80;;;;;;;;;;765431;180;920863;-69
2023/10/21 12:39:19;;;;;;;7.50;2.57;;;;;;;;;;775108;181;816325;-67
2023/10/21 12:41:26;;;;;;;5.60;2.03;;;;;;;;;;769540;180;918880;-66
2023/10/21 12:43:57;;;;;;;7.60;2.67;;;;;;;;;;754861;182;835025;-69
2023/10/21 12:46:18;;;;;;;7.40;2.57;;;;;;;;;;769867;180;1122701;-69
2023/10/21 12:48:44;;;;;;;6.57;2.50;;;;;;;;;;769320;180;916816;-68
2023/10/21 12:51:14;;;;;;;9.87;3.10;;;;;;;;;;770728;180;919213;-66
2023/10/21 12:53:35;;;;;;;11.87;3.73;;;;;;;;;;758758;183;920733;-69
2023/10/21 12:56:06;;;;;;;9.50;3.50;;;;;;;;;;753024;184;920104;-69
2023/10/21 12:58:27;;;;;;;14.67;3.53;;;;;;;;;;763670;182;917109;-69
2023/10/21 13:00:54;;;;;;;5.23;2.50;;;;;;;;;;767773;180;919353;-69
2023/10/21 13:03:19;;;;;;;8.83;2.30;;;;;;;;;;766794;181;1026651;-69
2023/10/21 13:05:46;;;;;;;3.70;2.00;;;;;;;;;;749559;185;921122;-70
2023/10/21 13:08:11;;;;;;;6.62;2.50;;;;;;;;;;763741;182;941539;-70
2023/10/21 13:10:36;;;;;;;9.50;2.33;;;;;;;;;;770076;182;919808;-69
2023/10/21 13:13:02;;;;;;;7.63;2.70;;;;;;;;;;742634;186;869806;-65
2023/10/21 13:15:29;;;;;;;7.67;2.43;;;;;;;;;;753786;184;919679;-66
2023/10/21 13:17:54;;;;;;;7.93;2.30;;;;;;;;;;751834;185;916997;-69
2023/10/21 13:20:20;;;;;;;10.50;3.53;;;;;;;;;;755312;184;627985;-70
2023/10/21 13:22:46;;;;;;;6.47;2.80;;;;;;;;;;742769;186;921260;-65
2023/10/21 13:25:13;;;;;;;7.47;2.80;;;;;;;;;;760859;183;821121;-70
2023/10/21 13:27:38;;;;;;;6.43;2.73;;;;;;;;;;758952;184;862506;-70
2023/10/21 13:30:10;;;;;;;12.57;3.30;;;;;;;;;;750000;184;918736;-70
2023/10/21 13:32:31;;;;;;;10.53;3.00;;;;;;;;;;764436;182;1291763;-67
2023/10/21 13:34:56;;;;;;;6.60;2.60;;;;;;;;;;768401;182;899338;-70
2023/10/21 13:37:23;;;;;;;7.20;3.00;;;;;;;;;;764748;182;929880;-69
2023/10/21 13:39:48;;;;;;;7.70;2.53;;;;;;;;;;768043;179;919329;-70
2023/10/21 13:42:14;;;;;;;10.63;2.60;;;;;;;;;;775410;179;916621;-66
2023/10/21 13:44:40;;;;;;;6.17;2.70;;;;;;;;;;761084;183;814514;-65
2023/10/21 13:47:08;;;;;;;9.37;3.00;;;;;;;;;;754479;184;914472;-70
2023/10/21 13:49:31;;;;;;;4.73;2.00;;;;;;;;;;764200;181;920976;-68
2023/10/21 13:51:58;;;;;;;8.57;3.70;;;;;;;;;;761015;184;922974;-69
2023/10/21 13:54:23;;;;;;;13.40;4.10;;;;;;;;;;747918;185;919265;-65
2023/10/21 13:56:49;;;;;;;7.30;2.60;;;;;;;;;;767443;179;921886;-64
2023/10/21 13:59:15;;;;;;;7.20;4.50;;;;;;;;;;769369;177;817591;-64
2023/10/21 14:01:41;;;;;;;10.97;2.90;;;;;;;;;;765507;180;875001;-70
2023/10/21 14:04:09;;;;;;;5.60;2.83;;;;;;;;;;770449;180;819969;-67
2023/10/21 14:06:33;;;;;;;9.27;3.20;;;;;;;;;;773547;177;889356;-65
2023/10/21 14:09:01;;;;;;;10.63;3.33;;;;;;;;;;766378;182;889326;-64
2023/10/21 14:11:25;;;;;;;8.20;2.90;;;;;;;;;;767215;181;918602;-65
2023/10/21 14:13:53;;;;;;;7.97;2.63;;;;;;;;;;768438;181;817639;-64
2023/10/21 14:16:19;;;;;;;6.13;2.70;;;;;;;;;;773017;181;815376;-63
2023/10/21 14:18:43;;;;;;;6.63;2.90;;;;;;;;;;752571;185;880414;-69
2023/10/21 14:21:09;;;;;;;6.93;2.57;;;;;;;;;;749029;185;919370;-65
2023/10/21 14:23:35;;;;;;;7.13;2.60;;;;;;;;;;761315;183;924040;-64
2023/10/21 14:26:01;;;;;;;6.17;2.20;;;;;;;;;;749348;186;918898;-65
2023/10/21 14:28:27;;;;;;;6.73;2.20;;;;;;;;;;771122;181;629420;-68